createdAt,value
2023-05-19T00:01:22.446Z,1.97
2023-05-19T00:03:54.487Z,2.10
2023-05-19T00:06:27.241Z,1.30
2023-05-19T00:09:09.407Z,1.63
2023-05-19T00:11:37.991Z,1.57
2023-05-19T00:14:07.961Z,1.10
2023-05-19T00:16:36.180Z,1.67
2023-05-19T00:19:05.392Z,1.97
2023-05-19T00:21:32.870Z,1.53
2023-05-19T00:23:59.966Z,1.40
2023-05-19T00:26:27.548Z,1.50
2023-05-19T00:29:00.010Z,1.77
2023-05-19T00:31:26.944Z,2.10
2023-05-19T00:33:55.635Z,1.63
2023-05-19T00:36:22.619Z,1.47
2023-05-19T00:38:51.130Z,1.60
2023-05-19T00:41:18.092Z,1.63
2023-05-19T00:43:45.345Z,1.70
2023-05-19T00:46:12.441Z,1.37
2023-05-19T00:48:39.616Z,2.00
2023-05-19T00:51:06.884Z,1.53
2023-05-19T00:53:35.096Z,1.77
2023-05-19T00:56:03.131Z,2.00
2023-05-19T00:58:32.583Z,1.90
2023-05-19T01:01:04.444Z,1.60
2023-05-19T01:03:35.612Z,2.20
2023-05-19T01:06:07.326Z,1.70
2023-05-19T01:08:37.052Z,2.23
2023-05-19T01:11:05.227Z,1.60
2023-05-19T01:13:33.282Z,1.97
2023-05-19T01:16:03.618Z,2.27
2023-05-19T01:18:56.809Z,1.60
2023-05-19T01:21:44.338Z,1.70
2023-05-19T01:24:32.444Z,1.47
2023-05-19T01:27:13.461Z,2.00
2023-05-19T01:29:42.867Z,2.00
2023-05-19T01:32:11.922Z,1.90
2023-05-19T01:34:44.299Z,2.53
2023-05-19T01:37:13.406Z,1.80
2023-05-19T01:39:41.484Z,2.13
2023-05-19T01:42:09.333Z,1.77
2023-05-19T01:44:36.830Z,2.13
2023-05-19T01:47:05.413Z,2.00
2023-05-19T01:49:32.752Z,2.03
2023-05-19T01:51:59.761Z,2.03
2023-05-19T01:54:27.690Z,2.10
2023-05-19T01:57:29.366Z,2.30
2023-05-19T02:00:34.806Z,2.10
2023-05-19T02:03:12.767Z,2.00
2023-05-19T02:05:54.911Z,1.80
2023-05-19T02:08:30.752Z,2.20
2023-05-19T02:11:02.974Z,2.00
2023-05-19T02:13:35.307Z,2.40
2023-05-19T02:16:05.483Z,2.53
2023-05-19T02:18:33.299Z,2.30
2023-05-19T02:21:00.312Z,2.10
2023-05-19T02:23:27.228Z,2.23
2023-05-19T02:25:54.375Z,2.17
2023-05-19T02:28:21.186Z,2.37
2023-05-19T02:30:48.183Z,1.93
2023-05-19T02:33:15.028Z,2.30
2023-05-19T02:35:43.486Z,2.30
2023-05-19T02:38:10.308Z,2.07
2023-05-19T02:40:37.585Z,2.10
2023-05-19T02:43:04.738Z,2.57
2023-05-19T02:45:32.018Z,2.13
2023-05-19T02:47:59.438Z,2.30
2023-05-19T02:50:26.557Z,2.50
2023-05-19T02:52:53.961Z,2.77
2023-05-19T02:55:21.007Z,1.70
2023-05-19T02:57:48.686Z,2.50
2023-05-19T03:00:16.123Z,1.93
2023-05-19T03:02:44.129Z,2.30
2023-05-19T03:05:11.508Z,2.90
2023-05-19T03:07:38.361Z,1.60
2023-05-19T03:10:06.805Z,1.83
2023-05-19T03:12:33.854Z,1.90
2023-05-19T03:15:01.040Z,1.80
2023-05-19T03:17:33.613Z,1.80
2023-05-19T03:20:01.610Z,1.83
2023-05-19T03:22:28.505Z,2.00
2023-05-19T03:24:55.891Z,2.10
2023-05-19T03:27:22.785Z,1.93
2023-05-19T03:29:49.953Z,1.87
2023-05-19T03:32:16.792Z,1.90
2023-05-19T03:34:43.827Z,2.27
2023-05-19T03:37:11.192Z,2.27
2023-05-19T03:39:40.050Z,2.00
2023-05-19T03:42:06.891Z,1.93
2023-05-19T03:44:33.926Z,2.27
2023-05-19T03:47:00.812Z,2.00
2023-05-19T03:49:46.519Z,1.80
2023-05-19T03:52:32.089Z,1.60
2023-05-19T03:55:08.271Z,2.00
2023-05-19T03:57:35.070Z,2.00
2023-05-19T04:00:02.848Z,1.70
2023-05-19T04:02:39.706Z,1.73
2023-05-19T04:05:08.542Z,2.33
2023-05-19T04:07:37.267Z,1.57
2023-05-19T04:10:05.782Z,1.70
2023-05-19T04:12:33.047Z,1.87
2023-05-19T04:15:00.478Z,2.30
2023-05-19T04:17:27.850Z,1.97
2023-05-19T04:19:55.739Z,2.57
2023-05-19T04:22:22.698Z,1.80
2023-05-19T04:24:51.674Z,2.93
2023-05-19T04:27:18.879Z,1.97
2023-05-19T04:29:48.407Z,2.30
2023-05-19T04:32:17.708Z,2.67
2023-05-19T04:34:48.013Z,2.13
2023-05-19T04:37:21.444Z,2.00
2023-05-19T04:39:48.512Z,2.37
2023-05-19T04:42:19.224Z,2.10
2023-05-19T04:44:49.276Z,1.90
2023-05-19T04:47:16.611Z,2.00
2023-05-19T04:49:43.748Z,1.80
2023-05-19T04:52:11.182Z,2.00
2023-05-19T04:54:40.071Z,1.83
2023-05-19T04:57:07.389Z,1.50
2023-05-19T04:59:37.989Z,1.33
2023-05-19T05:02:07.537Z,1.50
2023-05-19T05:04:36.341Z,2.00
2023-05-19T05:07:03.274Z,1.80
2023-05-19T05:09:30.380Z,1.80
2023-05-19T05:11:59.660Z,2.17
2023-05-19T05:14:27.168Z,1.73
2023-05-19T05:16:54.643Z,1.77
2023-05-19T05:19:24.338Z,1.98
2023-05-19T05:21:52.261Z,1.67
2023-05-19T05:24:20.001Z,1.75
2023-05-19T05:26:51.617Z,1.63
2023-05-19T05:29:19.845Z,2.00
2023-05-19T05:31:46.697Z,2.00
2023-05-19T05:34:14.065Z,2.03
2023-05-19T05:36:41.309Z,1.30
2023-05-19T05:39:09.137Z,1.60
2023-05-19T05:41:37.741Z,2.00
2023-05-19T05:44:10.694Z,1.80
2023-05-19T05:46:39.760Z,2.33
2023-05-19T05:49:07.521Z,1.65
2023-05-19T05:51:34.761Z,2.05
2023-05-19T05:54:06.041Z,1.58
2023-05-19T05:56:37.817Z,2.00
2023-05-19T05:59:07.656Z,1.50
2023-05-19T06:01:35.788Z,1.95
2023-05-19T06:04:05.233Z,1.50
2023-05-19T06:06:32.739Z,1.90
2023-05-19T06:09:01.832Z,1.88
2023-05-19T06:11:29.370Z,1.83
2023-05-19T06:13:58.735Z,2.08
2023-05-19T06:16:44.023Z,1.60
2023-05-19T06:19:11.742Z,1.90
2023-05-19T06:21:38.585Z,2.15
2023-05-19T06:24:05.859Z,1.92
2023-05-19T06:26:32.607Z,1.40
2023-05-19T06:28:59.982Z,1.67
2023-05-19T06:31:28.199Z,1.50
2023-05-19T06:33:58.500Z,1.73
2023-05-19T06:36:25.673Z,2.03
2023-05-19T06:38:56.292Z,1.95
2023-05-19T06:41:23.151Z,1.55
2023-05-19T06:43:51.870Z,1.60
2023-05-19T06:46:22.054Z,1.80
2023-05-19T06:48:49.123Z,1.95
2023-05-19T06:51:21.762Z,1.80
2023-05-19T06:53:52.318Z,1.70
2023-05-19T06:56:19.467Z,2.25
2023-05-19T06:58:46.566Z,1.90
2023-05-19T07:01:13.302Z,2.08
2023-05-19T07:03:46.702Z,2.38
2023-05-19T07:06:16.112Z,2.08
2023-05-19T07:08:43.554Z,2.20
2023-05-19T07:11:12.501Z,1.98
2023-05-19T07:13:40.851Z,2.00
2023-05-19T07:16:07.959Z,2.75
2023-05-19T07:18:35.416Z,1.80
2023-05-19T07:21:02.161Z,1.92
2023-05-19T07:23:29.450Z,1.92
2023-05-19T07:25:56.624Z,1.90
2023-05-19T07:28:23.777Z,2.13
2023-05-19T07:30:50.669Z,1.77
2023-05-19T07:33:17.671Z,2.05
2023-05-19T07:35:45.559Z,2.47
2023-05-19T07:38:12.632Z,2.05
2023-05-19T07:40:39.414Z,2.60
2023-05-19T07:43:06.454Z,2.22
2023-05-19T07:45:33.332Z,1.95
2023-05-19T07:48:00.629Z,2.10
2023-05-19T07:50:27.466Z,2.33
2023-05-19T07:52:54.540Z,1.92
2023-05-19T07:55:23.152Z,1.90
2023-05-19T07:57:50.908Z,2.30
2023-05-19T08:00:17.954Z,2.40
2023-05-19T08:02:45.667Z,1.88
2023-05-19T08:05:12.685Z,2.15
2023-05-19T08:07:39.905Z,1.40
2023-05-19T08:10:07.196Z,2.20
2023-05-19T08:12:34.260Z,2.47
2023-05-19T08:15:01.736Z,1.92
2023-05-19T08:17:29.346Z,2.20
2023-05-19T08:19:56.815Z,2.65
2023-05-19T08:22:24.034Z,2.35
2023-05-19T08:24:51.808Z,2.20
2023-05-19T08:27:18.923Z,2.20
2023-05-19T08:29:45.667Z,2.20
2023-05-19T08:32:13.516Z,2.65
2023-05-19T08:34:41.339Z,2.42
2023-05-19T08:37:08.413Z,2.20
2023-05-19T08:39:35.389Z,2.20
2023-05-19T08:42:02.686Z,2.25
2023-05-19T08:44:30.914Z,2.42
2023-05-19T08:47:02.938Z,2.42
2023-05-19T08:49:33.419Z,1.90
2023-05-19T08:52:19.466Z,2.10
2023-05-19T08:54:53.216Z,2.05
2023-05-19T08:57:22.984Z,2.22
2023-05-19T08:59:52.190Z,2.28
2023-05-19T09:02:19.798Z,2.00
2023-05-19T09:04:48.080Z,2.53
2023-05-19T09:07:15.855Z,2.55
2023-05-19T09:09:44.102Z,2.60
2023-05-19T09:12:11.800Z,2.92
2023-05-19T09:14:38.904Z,2.90
2023-05-19T09:17:06.657Z,2.25
2023-05-19T09:19:33.574Z,2.75
2023-05-19T09:22:03.418Z,2.50
2023-05-19T09:24:30.953Z,2.20
2023-05-19T09:27:00.040Z,2.53
2023-05-19T09:29:27.428Z,2.08
2023-05-19T09:32:00.461Z,2.92
2023-05-19T09:34:27.749Z,2.75
2023-05-19T09:36:54.811Z,2.38
2023-05-19T09:39:25.800Z,2.10
2023-05-19T09:41:54.535Z,2.08
2023-05-19T09:44:29.207Z,2.40
2023-05-19T09:46:56.863Z,2.63
2023-05-19T09:49:25.809Z,2.67
2023-05-19T09:51:56.744Z,2.90
2023-05-19T09:54:24.909Z,2.50
2023-05-19T09:56:58.598Z,2.40
2023-05-19T09:59:27.060Z,2.30
2023-05-19T10:01:56.788Z,2.53
2023-05-19T10:04:28.519Z,2.85
2023-05-19T10:06:59.643Z,2.72
2023-05-19T10:09:30.962Z,2.85
2023-05-19T10:11:59.131Z,2.50
2023-05-19T10:14:28.033Z,2.75
2023-05-19T10:16:59.497Z,2.67
2023-05-19T10:19:28.804Z,2.95
2023-05-19T10:21:56.901Z,3.35
2023-05-19T10:24:24.057Z,3.40
2023-05-19T10:27:10.568Z,3.10
2023-05-19T10:29:41.730Z,2.75
2023-05-19T10:32:15.185Z,3.33
2023-05-19T10:35:05.314Z,2.78
2023-05-19T10:37:53.569Z,3.10
2023-05-19T10:40:33.677Z,2.22
2023-05-19T10:43:16.827Z,3.00
2023-05-19T10:45:49.101Z,2.72
2023-05-19T10:48:17.029Z,2.33
2023-05-19T10:50:45.933Z,2.35
2023-05-19T10:53:22.503Z,2.22
2023-05-19T10:55:56.035Z,2.35
2023-05-19T10:58:44.904Z,2.72
2023-05-19T11:01:16.516Z,2.22
2023-05-19T11:03:48.552Z,2.35
2023-05-19T11:06:28.492Z,2.63
2023-05-19T11:08:58.321Z,2.55
2023-05-19T11:11:25.159Z,2.42
2023-05-19T11:13:53.943Z,2.92
2023-05-19T11:16:28.422Z,2.47
2023-05-19T11:18:58.677Z,2.40
2023-05-19T11:21:41.654Z,2.17
2023-05-19T11:24:09.846Z,2.20
2023-05-19T11:26:46.290Z,2.38
2023-05-19T11:29:14.592Z,2.38
2023-05-19T11:31:43.452Z,2.55
2023-05-19T11:34:10.962Z,2.28
2023-05-19T11:36:39.975Z,2.70
2023-05-19T11:39:08.556Z,2.35
2023-05-19T11:41:39.718Z,2.03
2023-05-19T11:44:12.022Z,2.45
2023-05-19T11:46:38.983Z,1.65
2023-05-19T11:49:06.200Z,2.20
2023-05-19T11:51:33.627Z,2.10
2023-05-19T11:54:03.126Z,1.50
2023-05-19T11:56:40.223Z,2.25
2023-05-19T11:59:08.009Z,2.42
2023-05-19T12:01:35.550Z,2.15
2023-05-19T12:04:07.707Z,1.95
2023-05-19T12:06:34.636Z,1.85
2023-05-19T12:09:01.778Z,1.88
2023-05-19T12:11:29.271Z,1.95
2023-05-19T12:13:59.581Z,2.20
2023-05-19T12:16:35.757Z,2.05
2023-05-19T12:19:06.043Z,1.48
2023-05-19T12:21:33.905Z,2.78
2023-05-19T12:24:02.133Z,1.90
2023-05-19T12:26:29.081Z,2.00
2023-05-19T12:28:56.144Z,2.13
2023-05-19T12:31:23.821Z,2.10
2023-05-19T12:33:53.599Z,2.85
2023-05-19T12:36:20.611Z,2.33
2023-05-19T12:38:48.496Z,2.00
2023-05-19T12:41:15.524Z,2.20
2023-05-19T12:43:42.737Z,2.08
2023-05-19T12:46:13.409Z,1.92
2023-05-19T12:48:42.950Z,2.08
2023-05-19T12:51:10.059Z,2.33
2023-05-19T12:53:37.988Z,2.03
2023-05-19T12:56:17.124Z,2.25
2023-05-19T12:58:45.905Z,1.75
2023-05-19T13:01:17.495Z,1.92
2023-05-19T13:03:45.954Z,2.35
2023-05-19T13:06:13.035Z,1.77
2023-05-19T13:08:41.343Z,1.73
2023-05-19T13:11:08.195Z,1.73
2023-05-19T13:13:35.408Z,1.77
2023-05-19T13:16:02.229Z,2.53
2023-05-19T13:18:32.132Z,1.63
2023-05-19T13:20:59.011Z,2.38
2023-05-19T13:23:26.354Z,1.75
2023-05-19T13:25:53.157Z,1.80
2023-05-19T13:28:20.297Z,1.80
2023-05-19T13:30:47.220Z,1.50
2023-05-19T13:33:14.370Z,2.13
2023-05-19T13:35:41.330Z,1.60
2023-05-19T13:38:10.190Z,1.38
2023-05-19T13:40:38.427Z,1.90
2023-05-19T13:43:06.034Z,1.80
2023-05-19T13:45:33.079Z,2.17
2023-05-19T13:48:00.385Z,1.95
2023-05-19T13:50:27.324Z,2.05
2023-05-19T13:52:54.490Z,2.20
2023-05-19T13:55:21.405Z,2.75
2023-05-19T13:57:48.496Z,3.08
2023-05-19T14:00:15.706Z,2.20
2023-05-19T14:02:43.055Z,2.28
2023-05-19T14:05:10.182Z,2.50
2023-05-19T14:07:37.235Z,2.10
2023-05-19T14:10:06.696Z,2.20
2023-05-19T14:12:43.718Z,2.67
2023-05-19T14:15:19.750Z,2.45
2023-05-19T14:17:48.951Z,2.58
2023-05-19T14:20:15.890Z,2.10
2023-05-19T14:22:42.986Z,2.53
2023-05-19T14:25:09.951Z,2.45
2023-05-19T14:27:37.201Z,2.13
2023-05-19T14:30:04.391Z,2.28
2023-05-19T14:32:31.607Z,2.53
2023-05-19T14:34:58.496Z,2.05
2023-05-19T14:37:28.838Z,2.00
2023-05-19T14:39:57.135Z,2.33
2023-05-19T14:42:24.703Z,2.20
2023-05-19T14:44:51.493Z,1.90
2023-05-19T14:47:18.610Z,1.90
2023-05-19T14:49:45.611Z,1.98
2023-05-19T14:52:12.640Z,1.85
2023-05-19T14:54:39.416Z,2.30
2023-05-19T14:57:08.127Z,2.20
2023-05-19T14:59:38.493Z,2.55
2023-05-19T15:02:06.082Z,2.25
2023-05-19T15:04:32.976Z,2.30
2023-05-19T15:09:29.940Z,2.13
2023-05-19T15:11:57.012Z,2.22
2023-05-19T15:14:24.236Z,2.10
2023-05-19T15:16:51.482Z,2.53
2023-05-19T15:19:18.652Z,2.75
2023-05-19T15:21:45.841Z,2.50
2023-05-19T15:24:12.596Z,2.42
2023-05-19T15:26:39.709Z,2.50
2023-05-19T15:29:06.860Z,2.63
2023-05-19T15:31:35.777Z,2.90
2023-05-19T15:34:04.205Z,2.53
2023-05-19T15:36:31.575Z,2.80
2023-05-19T15:38:58.408Z,2.17
2023-05-19T15:41:25.748Z,2.70
2023-05-19T15:43:53.643Z,2.37
2023-05-19T15:46:20.852Z,2.30
2023-05-19T15:48:47.819Z,2.80
2023-05-19T15:51:14.964Z,2.50
2023-05-19T15:53:41.701Z,2.45
2023-05-19T15:56:08.904Z,2.65
2023-05-19T15:58:35.883Z,2.45
2023-05-19T16:01:03.320Z,2.22
2023-05-19T16:03:30.498Z,2.70
2023-05-19T16:05:57.849Z,3.42
2023-05-19T16:08:25.199Z,2.70
2023-05-19T16:10:52.450Z,3.08
2023-05-19T16:13:19.230Z,3.20
2023-05-19T16:15:46.301Z,2.83
2023-05-19T16:18:13.190Z,3.05
2023-05-19T16:20:40.327Z,3.00
2023-05-19T16:23:07.235Z,3.22
2023-05-19T16:25:34.346Z,3.08
2023-05-19T16:28:01.314Z,3.17
2023-05-19T16:30:28.407Z,3.13
2023-05-19T16:32:55.393Z,3.83
2023-05-19T16:35:23.695Z,3.63
2023-05-19T16:37:50.632Z,3.25
2023-05-19T16:40:17.723Z,3.35
2023-05-19T16:42:44.431Z,3.50
2023-05-19T16:45:11.693Z,3.30
2023-05-19T16:47:38.695Z,3.60
2023-05-19T16:50:06.508Z,3.72
2023-05-19T16:52:33.370Z,4.47
2023-05-19T16:55:00.406Z,3.30
2023-05-19T16:57:27.294Z,4.15
2023-05-19T16:59:54.405Z,3.60
2023-05-19T17:02:21.257Z,3.10
2023-05-19T17:04:48.451Z,3.75
2023-05-19T17:07:15.717Z,4.18
2023-05-19T17:09:43.653Z,3.53
2023-05-19T17:12:10.904Z,4.07
2023-05-19T17:14:37.973Z,3.55
2023-05-19T17:17:04.935Z,4.03
2023-05-19T17:19:32.454Z,3.67
2023-05-19T17:21:59.263Z,3.58
2023-05-19T17:24:28.486Z,3.90
2023-05-19T17:26:55.800Z,3.08
2023-05-19T17:29:22.920Z,3.58
2023-05-19T17:31:49.795Z,3.37
2023-05-19T17:34:16.904Z,3.05
2023-05-19T17:36:43.665Z,3.30
2023-05-19T17:39:10.906Z,2.88
2023-05-19T17:41:37.734Z,3.38
2023-05-19T17:44:06.715Z,2.47
2023-05-19T17:46:34.781Z,2.70
2023-05-19T17:49:02.084Z,2.70
2023-05-19T17:51:29.406Z,3.30
2023-05-19T17:53:56.685Z,3.00
2023-05-19T17:56:24.928Z,2.95
2023-05-19T17:58:52.297Z,3.75
2023-05-19T18:01:23.720Z,3.00
2023-05-19T18:03:51.923Z,3.28
2023-05-19T18:06:19.332Z,3.33
2023-05-19T18:08:47.255Z,3.35
2023-05-19T18:11:16.050Z,2.80
2023-05-19T18:13:43.902Z,3.35
2023-05-19T18:16:11.290Z,4.05
2023-05-19T18:18:41.118Z,3.40
2023-05-19T18:21:07.963Z,2.80
2023-05-19T18:23:35.063Z,3.42
2023-05-19T18:26:01.894Z,2.63
2023-05-19T18:28:29.660Z,2.60
2023-05-19T18:31:04.664Z,3.40
2023-05-19T18:33:32.291Z,3.05
2023-05-19T18:35:59.274Z,3.20
2023-05-19T18:38:26.670Z,3.13
2023-05-19T18:40:53.884Z,2.50
2023-05-19T18:43:21.219Z,3.20
2023-05-19T18:45:48.171Z,2.95
2023-05-19T18:48:15.691Z,2.55
2023-05-19T18:50:44.554Z,3.10
2023-05-19T18:53:11.861Z,2.95
2023-05-19T18:55:38.788Z,3.33
2023-05-19T18:58:06.197Z,3.30
2023-05-19T19:00:35.676Z,3.00
2023-05-19T19:03:02.989Z,3.00
2023-05-19T19:05:30.204Z,2.60
2023-05-19T19:07:57.529Z,3.42
2023-05-19T19:10:24.515Z,2.77
2023-05-19T19:12:51.571Z,3.20
2023-05-19T19:15:18.508Z,2.90
2023-05-19T19:17:45.764Z,3.30
2023-05-19T19:20:12.988Z,3.75
2023-05-19T19:22:40.107Z,3.30
2023-05-19T19:25:07.277Z,4.28
2023-05-19T19:27:35.602Z,4.40
2023-05-19T19:30:02.728Z,3.77
2023-05-19T19:32:31.472Z,4.00
2023-05-19T19:34:58.433Z,3.57
2023-05-19T19:37:25.703Z,3.50
2023-05-19T19:39:52.682Z,4.53
2023-05-19T19:42:19.784Z,4.10
2023-05-19T19:44:46.774Z,4.05
2023-05-19T19:47:13.922Z,4.40
2023-05-19T19:49:40.974Z,4.03
2023-05-19T19:52:08.051Z,3.93
2023-05-19T19:54:34.845Z,3.80
2023-05-19T19:57:01.993Z,3.63
2023-05-19T19:59:29.413Z,3.17
2023-05-19T20:01:57.147Z,3.00
2023-05-19T20:04:24.167Z,3.50
2023-05-19T20:06:51.659Z,3.10
2023-05-19T20:09:18.502Z,3.53
2023-05-19T20:11:45.579Z,3.53
2023-05-19T20:14:12.400Z,3.47
2023-05-19T20:16:40.818Z,2.80
2023-05-19T20:19:09.280Z,3.15
2023-05-19T20:21:36.545Z,2.80
2023-05-19T20:24:03.646Z,2.90
2023-05-19T20:26:31.478Z,3.00
2023-05-19T20:28:59.037Z,2.97
2023-05-19T20:31:26.246Z,3.05
2023-05-19T20:33:53.073Z,2.70
2023-05-19T20:36:20.180Z,2.90
2023-05-19T20:38:47.978Z,3.03
2023-05-19T20:41:15.252Z,3.05
2023-05-19T20:43:42.024Z,3.13
2023-05-19T20:46:09.292Z,2.83
2023-05-19T20:48:36.335Z,2.90
2023-05-19T20:51:03.449Z,2.70
2023-05-19T20:53:30.488Z,2.95
2023-05-19T20:55:57.557Z,2.55
2023-05-19T20:58:26.671Z,2.80
2023-05-19T21:00:57.561Z,3.23
2023-05-19T21:03:26.750Z,2.55
2023-05-19T21:05:55.022Z,3.17
2023-05-19T21:08:22.485Z,2.65
2023-05-19T21:10:49.579Z,2.67
2023-05-19T21:13:17.271Z,3.70
2023-05-19T21:15:44.347Z,3.22
2023-05-19T21:18:11.946Z,3.22
2023-05-19T21:20:39.635Z,2.80
2023-05-19T21:23:06.456Z,2.88
2023-05-19T21:25:33.547Z,3.20
2023-05-19T21:28:00.287Z,3.13
2023-05-19T21:30:27.321Z,3.20
2023-05-19T21:32:54.178Z,3.28
2023-05-19T21:35:21.301Z,2.90
2023-05-19T21:37:48.232Z,3.20
2023-05-19T21:40:15.345Z,3.20
2023-05-19T21:42:42.092Z,2.85
2023-05-19T21:45:09.592Z,3.30
2023-05-19T21:47:36.481Z,3.10
2023-05-19T21:50:03.543Z,2.97
2023-05-19T21:52:31.340Z,3.20
2023-05-19T21:54:58.443Z,3.53
2023-05-19T21:57:25.263Z,3.08
2023-05-19T21:59:52.309Z,3.80
2023-05-19T22:02:19.043Z,3.50
2023-05-19T22:04:46.343Z,4.88
2023-05-19T22:07:13.236Z,4.13
2023-05-19T22:09:40.279Z,4.50
2023-05-19T22:12:07.577Z,3.50
2023-05-19T22:14:35.797Z,3.63
2023-05-19T22:17:02.669Z,3.23
2023-05-19T22:19:29.895Z,3.53
2023-05-19T22:22:09.725Z,3.30
2023-05-19T22:24:40.706Z,3.40
2023-05-19T22:27:08.325Z,3.50
2023-05-19T22:29:38.372Z,2.53
2023-05-19T22:32:07.681Z,3.40
2023-05-19T22:34:34.853Z,3.23
2023-05-19T22:37:01.948Z,3.20
2023-05-19T22:39:29.085Z,3.10
2023-05-19T22:41:55.969Z,3.27
2023-05-19T22:44:23.203Z,3.20
2023-05-19T22:46:49.976Z,3.10
2023-05-19T22:49:17.009Z,3.15
2023-05-19T22:51:43.823Z,3.80
2023-05-19T22:54:10.932Z,3.40
2023-05-19T22:56:37.725Z,3.50
2023-05-19T22:59:04.936Z,4.20
2023-05-19T23:01:31.741Z,2.97
2023-05-19T23:03:58.962Z,2.93
2023-05-19T23:06:25.768Z,2.80
2023-05-19T23:09:01.404Z,3.40
2023-05-19T23:11:28.221Z,3.92
2023-05-19T23:13:55.566Z,3.20
2023-05-19T23:16:22.703Z,3.23
2023-05-19T23:18:49.795Z,2.97
2023-05-19T23:21:16.650Z,2.80
2023-05-19T23:23:43.712Z,3.47
2023-05-19T23:26:13.237Z,3.50
2023-05-19T23:28:41.999Z,3.20
2023-05-19T23:31:09.595Z,3.28
2023-05-19T23:33:36.804Z,2.80
2023-05-19T23:36:08.541Z,2.95
2023-05-19T23:38:36.685Z,3.00
2023-05-19T23:41:03.681Z,3.92
2023-05-19T23:43:32.340Z,3.30
2023-05-19T23:45:59.632Z,3.35
2023-05-19T23:48:31.254Z,3.40
2023-05-19T23:50:58.270Z,3.00
2023-05-19T23:53:25.379Z,3.53
2023-05-19T23:55:52.412Z,3.28
2023-05-19T23:58:19.498Z,3.37
